Time;durP1;ratioP1;P1;durP2;ratioP2;P2;SDS_P1;SDS_P2;PMS_P1;PMS_P2;Temp;Humidity;BMP_temperature;BMP_pressure;BME280_temperature;BME280_humidity;BME280_pressure;Samples;Min_cycle;Max_cycle;Signal;HPM_P1;HPM_P2
2023/11/14 00:00:08;;;;;;;10.07;2.45;;;;;;;10.88;51.93;99915.34;4912471;29;20511;-73
2023/11/14 00:02:37;;;;;;;8.73;2.28;;;;;;;10.89;51.58;99897.88;4925850;28;20518;-73
2023/11/14 00:05:06;;;;;;;10.50;2.72;;;;;;;10.89;51.34;99902.50;4912930;29;20463;-72
2023/11/14 00:07:34;;;;;;;7.65;2.40;;;;;;;10.89;51.39;99903.38;4929728;29;20062;-73
2023/11/14 00:10:03;;;;;;;7.57;2.13;;;;;;;10.90;51.36;99906.94;4911882;29;20051;-73
2023/11/14 00:12:31;;;;;;;10.60;3.15;;;;;;;10.88;51.75;99901.66;4925248;28;20411;-75
2023/11/14 00:14:59;;;;;;;10.73;3.13;;;;;;;10.91;51.46;99916.88;4929837;29;20058;-74
2023/11/14 00:17:28;;;;;;;8.10;2.10;;;;;;;10.91;51.20;99900.44;4929077;28;20393;-74
2023/11/14 00:19:58;;;;;;;7.60;2.42;;;;;;;10.92;51.81;99904.91;4927385;28;20111;-74
2023/11/14 00:22:26;;;;;;;11.57;2.50;;;;;;;10.89;51.20;99903.38;4927249;28;20264;-74
2023/11/14 00:24:56;;;;;;;8.77;3.08;;;;;;;10.90;51.64;99912.41;4925938;29;20056;-72
2023/11/14 00:27:24;;;;;;;7.80;2.40;;;;;;;10.91;51.81;99911.41;4927823;29;20968;-74
2023/11/14 00:29:52;;;;;;;7.22;2.97;;;;;;;10.89;51.26;99907.97;4929269;29;20058;-74
2023/11/14 00:32:20;;;;;;;9.43;2.30;;;;;;;10.89;51.39;99903.38;4910451;29;20210;-74
2023/11/14 00:34:48;;;;;;;8.88;2.00;;;;;;;10.89;51.54;99917.06;4908888;28;20067;-74
2023/11/14 00:37:18;;;;;;;9.27;2.70;;;;;;;10.91;51.24;99925.94;4909805;29;20373;-74
2023/11/14 00:39:46;;;;;;;6.78;2.42;;;;;;;10.89;51.46;99930.75;4911944;29;20087;-74
2023/11/14 00:42:14;;;;;;;9.40;2.38;;;;;;;10.91;51.12;99927.81;4931575;28;20077;-74
2023/11/14 00:44:42;;;;;;;9.77;3.00;;;;;;;10.91;51.19;99933.28;4907815;29;20051;-74
2023/11/14 00:47:11;;;;;;;10.25;3.13;;;;;;;10.89;51.34;99930.75;4907448;29;20051;-74
2023/11/14 00:49:39;;;;;;;9.88;2.70;;;;;;;10.89;51.43;99935.34;4909836;29;20174;-74
2023/11/14 00:52:07;;;;;;;8.10;2.35;;;;;;;10.89;51.09;99938.94;4912188;29;20055;-74
2023/11/14 00:54:37;;;;;;;8.27;2.40;;;;;;;10.91;51.15;99944.25;4925790;28;20087;-74
2023/11/14 00:57:06;;;;;;;10.50;2.80;;;;;;;10.89;51.48;99936.22;4909256;29;20121;-74
2023/11/14 00:59:33;;;;;;;14.63;2.40;;;;;;;10.90;51.06;99942.53;4912067;29;20198;-74
2023/11/14 01:02:03;;;;;;;8.75;2.20;;;;;;;10.89;51.51;99941.69;4909172;29;20677;-74
2023/11/14 01:04:36;;;;;;;11.60;2.60;;;;;;;10.89;51.48;99930.75;4909542;28;20096;-74
2023/11/14 01:07:05;;;;;;;9.40;2.40;;;;;;;10.91;51.32;99947.84;4928398;29;20257;-74
2023/11/14 01:09:34;;;;;;;13.32;3.17;;;;;;;10.91;51.64;99944.25;4910637;28;20058;-74
2023/11/14 01:12:03;;;;;;;7.10;2.33;;;;;;;10.92;51.04;99952.31;4911092;29;20048;-74
2023/11/14 01:14:33;;;;;;;6.70;2.47;;;;;;;10.92;51.69;99948.72;4912125;28;20055;-74
2023/11/14 01:17:02;;;;;;;12.38;2.53;;;;;;;10.92;51.20;99940.50;4908198;29;20050;-74
2023/11/14 01:19:30;;;;;;;9.95;3.00;;;;;;;10.94;51.04;99941.19;4924785;28;20043;-74
2023/11/14 01:21:58;;;;;;;8.55;2.92;;;;;;;10.94;51.34;99933.00;4925215;28;20059;-74
2023/11/14 01:24:26;;;;;;;13.55;2.90;;;;;;;10.95;51.14;99930.09;4909391;29;20055;-74
2023/11/14 01:26:55;;;;;;;10.25;3.28;;;;;;;10.95;51.37;99926.50;4908795;29;20495;-74
2023/11/14 01:29:24;;;;;;;10.68;2.38;;;;;;;10.96;51.11;99922.75;4910091;29;20066;-74
2023/11/14 01:31:53;;;;;;;9.27;2.97;;;;;;;10.95;51.51;99916.41;4928255;28;20063;-74
2023/11/14 01:34:21;;;;;;;10.02;2.85;;;;;;;10.95;51.63;99912.81;4923787;29;20057;-74
2023/11/14 01:36:49;;;;;;;8.02;2.20;;;;;;;10.95;51.42;99901.84;4925973;29;20423;-74
2023/11/14 01:39:17;;;;;;;9.75;2.72;;;;;;;10.95;51.11;99921.88;4925272;29;20055;-74
2023/11/14 01:41:45;;;;;;;10.00;2.67;;;;;;;10.97;51.44;99935.41;4926433;28;20102;-74
2023/11/14 01:44:13;;;;;;;8.48;2.20;;;;;;;10.96;50.97;99928.22;4927183;28;20158;-74
2023/11/14 01:46:42;;;;;;;11.40;2.72;;;;;;;10.98;51.16;99931.63;4925500;28;20161;-74
2023/11/14 01:49:11;;;;;;;8.07;2.30;;;;;;;10.97;51.21;99927.22;4912066;29;20048;-74
2023/11/14 01:51:42;;;;;;;10.43;2.55;;;;;;;10.96;51.46;99937.28;4924469;29;20063;-74
2023/11/14 01:54:11;;;;;;;8.45;2.53;;;;;;;10.96;50.97;99929.09;4930890;28;20427;-74
2023/11/14 01:56:42;;;;;;;9.77;2.58;;;;;;;10.95;51.39;99929.22;4910508;28;20055;-74
2023/11/14 01:59:10;;;;;;;9.38;2.70;;;;;;;10.95;50.74;99941.03;4906715;29;20240;-74
2023/11/14 02:01:39;;;;;;;10.38;2.55;;;;;;;10.96;50.76;99933.69;4906928;28;20128;-74
2023/11/14 02:04:10;;;;;;;10.38;2.55;;;;;;;10.97;50.89;99949.09;4909918;29;20126;-74
2023/11/14 02:06:38;;;;;;;8.40;2.50;;;;;;;10.95;51.22;99948.41;4925738;28;20577;-74
2023/11/14 02:09:07;;;;;;;8.10;2.28;;;;;;;10.94;51.34;99949.41;4923725;28;20048;-74
2023/11/14 02:11:36;;;;;;;10.75;2.72;;;;;;;10.93;51.08;99934.88;4912459;29;20055;-75
2023/11/14 02:14:05;;;;;;;10.32;2.53;;;;;;;10.94;51.17;99954.88;4928995;29;20070;-74
2023/11/14 02:16:47;;;;;;;11.05;2.35;;;;;;;10.95;50.95;99967.56;4924959;28;20055;-74
2023/11/14 02:19:17;;;;;;;6.80;2.25;;;;;;;10.93;50.75;99969.59;4908789;29;20475;-74
2023/11/14 02:21:46;;;;;;;8.70;2.30;;;;;;;10.91;51.06;99972.47;4927242;28;20697;-74
2023/11/14 02:24:16;;;;;;;7.85;2.63;;;;;;;10.94;51.21;99971.31;4911098;29;20043;-74
2023/11/14 02:26:46;;;;;;;8.35;2.75;;;;;;;10.94;51.00;99960.38;4910553;28;20111;-74
2023/11/14 02:29:15;;;;;;;10.27;2.50;;;;;;;10.91;51.21;99966.16;4925885;28;20050;-74
2023/11/14 02:31:43;;;;;;;12.40;2.63;;;;;;;10.89;50.87;99996.44;4909632;29;20653;-74
2023/11/14 02:34:11;;;;;;;10.30;2.67;;;;;;;10.89;50.62;99971.81;4908747;29;20780;-74
2023/11/14 02:36:39;;;;;;;11.90;3.63;;;;;;;10.90;50.74;99978.09;4904788;28;21320;-74
2023/11/14 02:39:08;;;;;;;10.90;2.95;;;;;;;10.89;51.20;99981.91;4906440;29;20059;-74
2023/11/14 02:41:36;;;;;;;10.38;2.88;;;;;;;10.88;50.99;99996.59;4929457;28;20153;-74
2023/11/14 02:44:06;;;;;;;14.30;3.65;;;;;;;10.89;51.04;100003.78;4913536;29;20400;-74
2023/11/14 02:46:34;;;;;;;9.05;2.67;;;;;;;10.85;50.89;100000.50;4927272;28;20142;-74
2023/11/14 02:49:23;;;;;;;12.30;2.63;;;;;;;10.89;50.81;99981.91;4910116;29;20058;-74
2023/11/14 02:51:51;;;;;;;10.82;2.70;;;;;;;10.86;51.21;100004.94;4928301;28;20467;-74
2023/11/14 02:54:20;;;;;;;9.77;2.05;;;;;;;10.87;50.74;100008.56;4928116;29;20062;-74
2023/11/14 02:56:48;;;;;;;12.25;2.50;;;;;;;10.86;50.82;100004.94;4912156;29;20048;-74
2023/11/14 02:59:19;;;;;;;9.77;2.53;;;;;;;10.89;50.69;99992.84;4932444;28;20431;-74
2023/11/14 03:01:47;;;;;;;9.90;2.30;;;;;;;10.88;50.70;100002.06;4928523;28;20437;-74
2023/11/14 03:04:16;;;;;;;12.00;2.63;;;;;;;10.88;51.15;99997.47;4929009;29;20106;-74
2023/11/14 03:06:44;;;;;;;10.13;2.55;;;;;;;10.88;50.76;100002.94;4932050;28;20052;-74
2023/11/14 03:09:13;;;;;;;11.55;2.72;;;;;;;10.88;50.94;100000.19;4927239;28;20134;-74
2023/11/14 03:11:41;;;;;;;9.65;2.83;;;;;;;10.89;50.86;100009.28;4909355;29;20083;-74
2023/11/14 03:14:09;;;;;;;10.23;3.00;;;;;;;10.88;50.80;100005.66;4913906;29;20047;-74
2023/11/14 03:16:39;;;;;;;8.35;3.00;;;;;;;10.90;50.55;100021.91;4912658;29;20067;-74
2023/11/14 03:19:07;;;;;;;7.95;2.30;;;;;;;10.88;50.90;100002.94;4909601;29;20059;-74
2023/11/14 03:21:35;;;;;;;10.00;3.25;;;;;;;10.87;50.93;100001.19;4907645;29;20122;-74
2023/11/14 03:24:03;;;;;;;9.80;2.67;;;;;;;10.89;50.65;99982.75;4915164;29;20679;-74
2023/11/14 03:26:32;;;;;;;10.07;2.55;;;;;;;10.88;50.92;100002.06;4929404;29;20512;-72
2023/11/14 03:28:59;;;;;;;9.77;2.53;;;;;;;10.87;51.05;100016.75;4930101;28;20051;-73
2023/11/14 03:31:27;;;;;;;9.85;2.20;;;;;;;10.87;51.07;100003.94;4928300;29;20511;-73
2023/11/14 03:33:57;;;;;;;9.98;2.78;;;;;;;10.88;51.17;99989.25;4910324;29;20526;-73
2023/11/14 03:36:24;;;;;;;10.10;2.85;;;;;;;10.88;51.11;100000.19;4926420;28;20055;-73
2023/11/14 03:38:54;;;;;;;8.60;2.80;;;;;;;10.88;50.66;100013.00;4911615;29;20479;-73
2023/11/14 03:41:21;;;;;;;8.35;2.42;;;;;;;10.87;50.94;100003.94;4908391;29;20632;-73
2023/11/14 03:43:49;;;;;;;10.43;2.70;;;;;;;10.86;50.84;100004.94;4931687;28;20162;-73
2023/11/14 03:46:17;;;;;;;13.02;3.13;;;;;;;10.86;51.00;99991.28;4910081;29;20054;-72
2023/11/14 03:48:45;;;;;;;10.00;2.55;;;;;;;10.87;50.84;100003.06;4928762;28;20059;-73
2023/11/14 03:51:14;;;;;;;9.07;2.67;;;;;;;10.87;50.79;100006.69;4908095;29;20056;-72
2023/11/14 03:53:44;;;;;;;7.93;2.90;;;;;;;10.86;50.84;100010.44;4928163;28;20182;-72
2023/11/14 03:56:12;;;;;;;7.32;2.30;;;;;;;10.86;50.70;100017.78;4926355;28;20229;-72
2023/11/14 03:58:40;;;;;;;10.25;2.85;;;;;;;10.86;50.75;100001.34;4912739;29;20146;-72
2023/11/14 04:01:08;;;;;;;9.32;2.83;;;;;;;10.86;50.69;100009.56;4910785;29;20245;-72
2023/11/14 04:03:38;;;;;;;10.85;2.97;;;;;;;10.86;51.02;99991.28;4929511;28;20062;-73
2023/11/14 04:06:06;;;;;;;10.13;2.88;;;;;;;10.84;50.98;100023.41;4909904;29;20052;-73
2023/11/14 04:08:35;;;;;;;8.02;2.42;;;;;;;10.86;51.16;100013.16;4926474;28;20075;-73
2023/11/14 04:11:03;;;;;;;8.00;2.50;;;;;;;10.86;51.16;100017.78;4911280;29;20499;-73
2023/11/14 04:13:31;;;;;;;7.75;2.42;;;;;;;10.85;50.64;100016.06;4929789;28;20056;-73
2023/11/14 04:16:00;;;;;;;10.68;2.47;;;;;;;10.85;50.63;100007.84;4907255;29;20073;-73
2023/11/14 04:18:28;;;;;;;8.80;2.70;;;;;;;10.85;51.06;100021.53;4907988;28;20048;-73
2023/11/14 04:20:58;;;;;;;8.48;2.60;;;;;;;10.85;50.75;100021.53;4926517;29;20087;-73
2023/11/14 04:23:26;;;;;;;7.53;2.08;;;;;;;10.84;50.71;100025.28;4910476;29;20059;-73
2023/11/14 04:25:55;;;;;;;9.57;2.58;;;;;;;10.85;50.72;100022.41;4929866;28;20051;-73
2023/11/14 04:28:23;;;;;;;10.02;2.60;;;;;;;10.84;51.20;100031.63;4909765;28;20628;-73
2023/11/14 04:30:52;;;;;;;7.32;1.98;;;;;;;10.85;50.71;100032.47;4926066;29;20813;-73
2023/11/14 04:33:20;;;;;;;7.30;2.58;;;;;;;10.83;50.98;100007.13;4924364;28;20055;-73
2023/11/14 04:35:48;;;;;;;9.68;2.78;;;;;;;10.82;51.15;100017.22;4925406;28;20055;-73
2023/11/14 04:38:16;;;;;;;11.07;2.88;;;;;;;10.83;50.90;100021.69;4927879;29;20423;-73
2023/11/14 04:40:45;;;;;;;11.57;3.75;;;;;;;10.84;50.96;100017.06;4927973;28;20143;-73
2023/11/14 04:43:14;;;;;;;10.20;2.60;;;;;;;10.85;50.78;100011.44;4912359;29;20047;-73
2023/11/14 04:45:42;;;;;;;6.55;2.28;;;;;;;10.85;51.38;100021.53;4906685;29;20055;-73
2023/11/14 04:48:12;;;;;;;8.80;2.75;;;;;;;10.87;50.83;100003.06;4928909;28;20057;-73
2023/11/14 04:50:40;;;;;;;10.73;2.65;;;;;;;10.85;51.18;100027.88;4925185;28;20063;-73
2023/11/14 04:53:08;;;;;;;8.43;2.60;;;;;;;10.86;50.78;100023.25;4910875;29;20063;-73
2023/11/14 04:55:36;;;;;;;7.55;2.33;;;;;;;10.85;51.08;100016.91;4907665;28;20219;-73
2023/11/14 04:58:05;;;;;;;9.50;2.70;;;;;;;10.87;51.34;100023.09;4926448;28;20054;-73
2023/11/14 05:00:34;;;;;;;10.25;2.10;;;;;;;10.90;51.01;100016.44;4924184;28;20138;-73
2023/11/14 05:03:04;;;;;;;14.40;2.95;;;;;;;10.88;50.90;100015.75;4914588;29;20051;-73
2023/11/14 05:05:33;;;;;;;9.35;2.58;;;;;;;10.88;51.27;100008.41;4925197;29;20066;-73
2023/11/14 05:08:01;;;;;;;8.15;2.47;;;;;;;10.91;51.35;100016.28;4925993;28;20130;-72
2023/11/14 05:10:29;;;;;;;8.98;2.30;;;;;;;10.90;51.28;100006.34;4927940;28;20507;-73
2023/11/14 05:12:57;;;;;;;10.98;3.03;;;;;;;10.92;50.91;100006.19;4928130;29;20066;-73
2023/11/14 05:15:25;;;;;;;9.38;2.63;;;;;;;10.92;51.19;100018.00;4928158;28;20055;-73
2023/11/14 05:17:56;;;;;;;11.90;2.40;;;;;;;10.95;50.94;100034.13;4926568;28;20135;-73
2023/11/14 05:20:24;;;;;;;9.70;2.50;;;;;;;10.93;51.16;100018.88;4908777;29;20054;-73
2023/11/14 05:22:52;;;;;;;10.52;2.40;;;;;;;10.94;51.37;100021.47;4926983;28;20055;-73
2023/11/14 05:25:20;;;;;;;9.55;2.40;;;;;;;10.95;51.37;100036.00;4927088;28;20055;-72
2023/11/14 05:27:49;;;;;;;8.40;3.08;;;;;;;10.95;50.90;100036.00;4908780;29;20048;-73
2023/11/14 05:30:18;;;;;;;8.27;2.25;;;;;;;10.95;51.30;100042.34;4907683;29;20052;-73
2023/11/14 05:32:48;;;;;;;11.80;2.33;;;;;;;10.97;51.16;100043.06;4909005;28;20150;-72
2023/11/14 05:35:17;;;;;;;9.73;2.47;;;;;;;10.97;50.81;100045.78;4907276;29;20062;-73
2023/11/14 05:37:45;;;;;;;9.40;2.70;;;;;;;10.97;50.93;100051.28;4928818;28;20055;-73
2023/11/14 05:40:13;;;;;;;11.75;2.85;;;;;;;10.97;51.23;100048.53;4926396;29;20053;-73
2023/11/14 05:42:41;;;;;;;9.88;2.45;;;;;;;10.97;51.21;100042.19;4925259;28;20066;-75
2023/11/14 05:45:10;;;;;;;11.20;3.15;;;;;;;10.99;51.14;100048.34;4927631;29;20062;-74
2023/11/14 05:47:38;;;;;;;8.52;2.63;;;;;;;10.98;50.82;100060.31;4927220;28;20054;-72
2023/11/14 05:50:07;;;;;;;7.72;2.63;;;;;;;11.01;50.84;100040.84;4928181;28;21151;-73
2023/11/14 05:52:37;;;;;;;9.73;2.90;;;;;;;11.01;50.87;100059.16;4923706;28;20047;-75
2023/11/14 05:55:06;;;;;;;13.77;3.20;;;;;;;10.99;50.90;100048.34;4921507;28;20460;-74
2023/11/14 05:57:34;;;;;;;10.98;2.70;;;;;;;10.98;51.10;100039.28;4922955;29;20396;-75
2023/11/14 06:00:02;;;;;;;9.60;2.58;;;;;;;11.01;50.70;100048.19;4918441;28;20059;-74
2023/11/14 06:02:38;;;;;;;8.20;2.53;;;;;;;11.01;50.85;100056.41;4918833;29;20055;-74
2023/11/14 06:05:07;;;;;;;13.13;2.95;;;;;;;11.01;51.01;100061.88;4921783;29;20511;-74
2023/11/14 06:07:35;;;;;;;8.55;2.38;;;;;;;11.01;50.79;100060.00;4901932;29;20438;-73
2023/11/14 06:10:05;;;;;;;9.98;2.60;;;;;;;11.04;50.61;100065.19;4922305;28;20479;-74
2023/11/14 06:12:33;;;;;;;8.00;2.50;;;;;;;11.02;50.97;100074.56;4894249;29;20056;-74
2023/11/14 06:15:01;;;;;;;9.35;1.92;;;;;;;11.02;50.74;100078.16;4881966;29;20052;-73
2023/11/14 06:17:29;;;;;;;8.70;2.67;;;;;;;11.01;51.18;100065.50;4885663;29;20115;-73
2023/11/14 06:19:57;;;;;;;10.60;2.45;;;;;;;11.02;50.64;100083.63;4904210;29;20056;-73
2023/11/14 06:22:25;;;;;;;8.45;2.70;;;;;;;11.03;51.19;100089.97;4910679;29;20059;-74
2023/11/14 06:24:53;;;;;;;8.95;2.60;;;;;;;11.03;51.01;100100.94;4921597;29;20048;-73
2023/11/14 06:27:22;;;;;;;9.02;2.70;;;;;;;11.05;51.13;100132.63;4919640;29;20122;-74
2023/11/14 06:29:50;;;;;;;9.93;2.70;;;;;;;11.03;50.89;100112.75;4924188;29;20055;-73
2023/11/14 06:32:18;;;;;;;11.45;3.03;;;;;;;11.04;50.78;100087.09;4922265;28;20170;-73
2023/11/14 06:34:46;;;;;;;9.02;3.05;;;;;;;11.05;51.44;100079.75;4919562;28;20795;-74
2023/11/14 06:37:16;;;;;;;7.63;2.20;;;;;;;11.06;51.14;100096.00;4924264;29;20089;-74
2023/11/14 06:39:44;;;;;;;10.30;2.33;;;;;;;11.06;50.84;100093.25;4924437;28;20052;-74
2023/11/14 06:42:15;;;;;;;9.65;2.35;;;;;;;11.08;50.89;100104.91;4924572;29;20052;-74
2023/11/14 06:44:45;;;;;;;7.82;2.58;;;;;;;11.10;50.75;100121.19;4923131;28;21083;-74
2023/11/14 06:47:15;;;;;;;10.02;2.40;;;;;;;11.07;51.00;100111.41;4905373;29;20043;-74
2023/11/14 06:49:43;;;;;;;10.68;2.40;;;;;;;11.09;50.89;100100.31;4926236;28;20098;-73
2023/11/14 06:52:11;;;;;;;9.30;2.75;;;;;;;11.10;51.21;100099.28;4924071;28;20137;-73
2023/11/14 06:54:39;;;;;;;12.38;2.45;;;;;;;11.10;50.85;100105.63;4925622;28;20039;-74
2023/11/14 06:57:09;;;;;;;8.05;2.40;;;;;;;11.11;50.77;100110.09;4928953;29;20074;-74
2023/11/14 06:59:38;;;;;;;10.95;2.63;;;;;;;11.11;51.16;100112.84;4929481;29;20172;-74
2023/11/14 07:02:08;;;;;;;9.60;2.40;;;;;;;11.13;51.11;100086.16;4928988;29;20131;-74
2023/11/14 07:04:38;;;;;;;7.28;2.40;;;;;;;11.11;50.64;100085.44;4920449;29;20062;-74
2023/11/14 07:07:06;;;;;;;9.88;2.78;;;;;;;11.11;50.87;100095.53;4931438;28;20054;-74
2023/11/14 07:09:34;;;;;;;8.13;2.45;;;;;;;11.12;50.85;100113.69;4913358;29;20055;-74
2023/11/14 07:12:02;;;;;;;7.75;2.38;;;;;;;11.13;50.67;100131.84;4929129;29;20057;-73
2023/11/14 07:14:30;;;;;;;9.30;2.13;;;;;;;11.12;51.33;100116.44;4930213;29;20423;-74
2023/11/14 07:16:58;;;;;;;10.02;2.45;;;;;;;11.13;50.91;100108.06;4927702;29;20051;-74
2023/11/14 07:19:29;;;;;;;6.38;1.88;;;;;;;11.14;51.24;100117.97;4931734;29;20052;-74
2023/11/14 07:21:57;;;;;;;7.53;2.40;;;;;;;11.12;51.15;100136.47;4912459;29;20162;-74
2023/11/14 07:24:26;;;;;;;13.48;2.67;;;;;;;11.14;50.76;100156.31;4929693;29;20060;-74
2023/11/14 07:26:54;;;;;;;11.80;2.35;;;;;;;11.16;50.81;100167.97;4913486;29;20051;-74
2023/11/14 07:29:22;;;;;;;8.77;2.28;;;;;;;11.15;51.12;100152.56;4931130;29;20414;-74
2023/11/14 07:31:49;;;;;;;8.57;2.17;;;;;;;11.16;51.31;100147.94;4926475;29;20494;-74
2023/11/14 07:34:17;;;;;;;8.70;2.90;;;;;;;11.16;51.12;100147.94;4926030;29;20119;-74
2023/11/14 07:36:46;;;;;;;8.32;2.25;;;;;;;11.18;50.67;100146.78;4927992;29;20046;-75
2023/11/14 07:39:14;;;;;;;7.68;2.13;;;;;;;11.18;51.25;100137.72;4911950;29;20047;-74
2023/11/14 07:41:42;;;;;;;8.63;2.50;;;;;;;11.19;50.96;100129.34;4927411;28;20784;-74
2023/11/14 07:44:11;;;;;;;8.65;2.33;;;;;;;11.18;51.03;100127.63;4931013;29;20044;-74
2023/11/14 07:46:41;;;;;;;8.05;2.33;;;;;;;11.20;51.20;100124.72;4926055;29;20048;-76
2023/11/14 07:49:09;;;;;;;7.88;2.50;;;;;;;11.20;50.71;100139.28;4928438;28;20054;-77
2023/11/14 07:51:37;;;;;;;9.15;2.83;;;;;;;11.20;51.25;100116.50;4925123;28;20135;-76
2023/11/14 07:54:07;;;;;;;9.23;2.42;;;;;;;11.23;50.89;100125.25;4902121;29;20118;-75
2023/11/14 07:56:40;;;;;;;10.23;2.35;;;;;;;11.23;51.11;100136.22;4937067;23;20135;-75
2023/11/14 07:59:08;;;;;;;6.90;1.67;;;;;;;11.22;50.75;100119.97;4941513;29;20050;-78
2023/11/14 08:01:38;;;;;;;6.97;2.05;;;;;;;11.23;51.31;100113.44;4952484;28;20633;-77
2023/11/14 08:04:10;;;;;;;6.20;2.00;;;;;;;11.25;50.84;100116.88;4952965;28;20047;-76
2023/11/14 08:06:39;;;;;;;6.22;2.42;;;;;;;11.21;50.91;100101.81;4937493;28;20117;-77
2023/11/14 08:09:08;;;;;;;10.77;2.67;;;;;;;11.27;51.37;100095.69;4950248;28;20526;-76
2023/11/14 08:11:38;;;;;;;7.50;2.47;;;;;;;11.26;51.01;100104.91;4940818;28;20126;-77
2023/11/14 08:14:07;;;;;;;8.65;2.28;;;;;;;11.27;51.44;100123.94;4932173;28;20138;-77
2023/11/14 08:16:35;;;;;;;8.63;2.05;;;;;;;11.29;51.00;100123.78;4948183;28;20055;-78
2023/11/14 08:19:03;;;;;;;7.30;2.50;;;;;;;11.29;51.20;100110.97;4933970;28;20051;-77
2023/11/14 08:21:31;;;;;;;8.35;2.15;;;;;;;11.30;51.47;100123.63;4954397;28;20514;-79
2023/11/14 08:23:59;;;;;;;8.50;1.92;;;;;;;11.32;51.15;100110.63;4933166;28;20141;-78
2023/11/14 08:26:28;;;;;;;8.85;2.38;;;;;;;11.35;51.50;100117.69;4929709;28;20063;-78
2023/11/14 08:28:56;;;;;;;8.35;2.20;;;;;;;11.35;51.49;100115.78;4946545;28;20628;-77
2023/11/14 08:31:24;;;;;;;10.07;2.80;;;;;;;11.35;51.38;100107.59;4916904;29;20075;-78
2023/11/14 08:33:53;;;;;;;8.13;2.38;;;;;;;11.38;51.14;100122.84;4929852;29;20423;-78
2023/11/14 08:36:21;;;;;;;7.55;1.90;;;;;;;11.40;51.46;100125.41;4915301;28;20070;-78
2023/11/14 08:38:48;;;;;;;6.60;1.98;;;;;;;11.40;50.92;100103.50;4946810;28;20429;-78
2023/11/14 08:41:16;;;;;;;6.65;2.25;;;;;;;11.40;51.56;100109.84;4949569;28;20546;-77
2023/11/14 08:43:46;;;;;;;5.82;2.08;;;;;;;11.44;51.08;100115.88;4946458;28;20046;-77
2023/11/14 08:46:14;;;;;;;8.60;2.13;;;;;;;11.44;51.44;100110.38;4932592;28;20051;-77
2023/11/14 08:48:43;;;;;;;8.70;3.05;;;;;;;11.45;51.23;100104.75;4926160;29;20105;-77
2023/11/14 08:51:15;;;;;;;8.23;2.42;;;;;;;11.48;50.90;100106.28;4945125;28;20186;-77
2023/11/14 08:53:44;;;;;;;8.30;2.00;;;;;;;11.48;51.43;100111.78;4918029;29;20233;-78
2023/11/14 08:56:12;;;;;;;5.47;1.90;;;;;;;11.50;51.17;100093.31;4937753;29;20051;-77
2023/11/14 08:58:40;;;;;;;7.85;2.05;;;;;;;11.53;51.01;100091.13;4937442;28;20055;-77
2023/11/14 09:01:11;;;;;;;9.50;2.20;;;;;;;11.57;50.92;100097.13;4922091;29;20051;-77
2023/11/14 09:03:39;;;;;;;7.95;2.72;;;;;;;11.57;51.54;100106.22;4933069;29;20549;-78
2023/11/14 09:06:07;;;;;;;7.60;2.30;;;;;;;11.61;51.23;100109.53;4939834;28;20123;-76
2023/11/14 09:08:35;;;;;;;8.15;2.47;;;;;;;11.63;51.07;100113.00;4927509;28;20726;-77
2023/11/14 09:11:05;;;;;;;7.85;2.22;;;;;;;11.66;51.30;100123.63;4909867;29;21125;-77
2023/11/14 09:13:33;;;;;;;5.75;2.08;;;;;;;11.67;51.11;100125.34;4902057;29;20527;-77
2023/11/14 09:16:02;;;;;;;7.85;2.17;;;;;;;11.68;50.89;100122.44;4918636;28;20057;-78
2023/11/14 09:18:32;;;;;;;8.68;2.13;;;;;;;11.72;51.13;100121.09;4931121;28;20077;-75
2023/11/14 09:21:00;;;;;;;8.00;2.40;;;;;;;11.72;51.15;100115.59;4948712;28;20228;-78
2023/11/14 09:23:28;;;;;;;7.50;2.05;;;;;;;11.73;50.80;100106.38;4950707;28;20062;-77
2023/11/14 09:25:57;;;;;;;7.30;2.15;;;;;;;11.75;50.77;100114.44;4937600;28;20142;-76
2023/11/14 09:28:25;;;;;;;7.45;1.92;;;;;;;11.76;50.70;100113.41;4933735;28;20057;-76
2023/11/14 09:30:53;;;;;;;8.73;2.40;;;;;;;11.77;50.65;100128.84;4936295;28;20530;-77
2023/11/14 09:33:20;;;;;;;8.10;2.35;;;;;;;11.77;51.02;100117.88;4965145;28;20515;-75
2023/11/14 09:35:50;;;;;;;6.88;2.10;;;;;;;11.80;50.49;100112.06;4968803;28;20580;-75
2023/11/14 09:38:18;;;;;;;8.48;2.30;;;;;;;11.80;50.93;100119.47;4967029;28;20044;-75
2023/11/14 09:40:47;;;;;;;7.57;2.08;;;;;;;11.79;50.60;100121.34;4940914;28;20398;-75
2023/11/14 09:43:17;;;;;;;6.90;2.10;;;;;;;11.81;50.76;100124.75;4934392;28;20644;-75
2023/11/14 09:45:46;;;;;;;7.18;2.08;;;;;;;11.81;50.58;100124.75;4951585;29;20059;-75
2023/11/14 09:48:14;;;;;;;13.15;2.58;;;;;;;11.83;50.46;100124.59;4935315;29;20398;-76
2023/11/14 09:50:43;;;;;;;8.25;1.95;;;;;;;11.88;50.75;100134.09;4950850;28;20074;-75
2023/11/14 09:53:13;;;;;;;7.20;1.85;;;;;;;11.92;50.85;100134.59;4968843;28;20043;-75
2023/11/14 09:55:42;;;;;;;5.95;2.20;;;;;;;11.91;51.05;100135.63;4938562;29;20515;-76
2023/11/14 09:58:10;;;;;;;7.40;2.10;;;;;;;11.92;50.72;100143.69;4929022;29;20679;-75
2023/11/14 10:00:38;;;;;;;7.97;2.45;;;;;;;11.94;50.71;100162.75;4928015;29;20055;-74
2023/11/14 10:03:05;;;;;;;6.93;2.22;;;;;;;11.96;50.43;100157.97;4936222;29;20071;-74
2023/11/14 10:05:34;;;;;;;8.60;2.85;;;;;;;11.97;50.32;100165.13;4914649;29;20056;-75
2023/11/14 10:08:03;;;;;;;7.32;2.38;;;;;;;11.98;50.83;100167.72;4949326;29;20541;-75
2023/11/14 10:10:34;;;;;;;7.78;1.80;;;;;;;12.00;50.34;100160.22;4932226;29;20056;-74
2023/11/14 10:13:03;;;;;;;6.20;2.10;;;;;;;11.99;50.89;100174.94;4951023;29;20051;-74
2023/11/14 10:15:32;;;;;;;7.38;2.30;;;;;;;12.02;50.31;100168.28;4918545;29;20051;-74
2023/11/14 10:18:02;;;;;;;7.38;1.98;;;;;;;12.02;50.78;100160.06;4945440;29;20099;-75
2023/11/14 10:20:40;;;;;;;6.15;1.88;;;;;;;12.05;50.42;100160.56;4932249;29;20051;-74
2023/11/14 10:23:15;;;;;;;6.72;1.88;;;;;;;12.02;50.40;100162.78;4929443;29;20054;-74
2023/11/14 10:26:06;;;;;;;5.35;1.90;;;;;;;12.03;50.39;100148.06;4935124;29;20106;-74
2023/11/14 10:28:34;;;;;;;7.75;2.05;;;;;;;12.03;50.64;100148.06;4926561;29;20051;-75
2023/11/14 10:31:02;;;;;;;8.23;2.38;;;;;;;12.04;50.60;100145.16;4951359;29;20578;-75
2023/11/14 10:33:44;;;;;;;7.35;2.15;;;;;;;12.04;50.53;100139.69;4918283;29;20131;-74
2023/11/14 10:36:12;;;;;;;6.82;1.98;;;;;;;12.06;50.75;100142.25;4919712;29;20078;-75
2023/11/14 10:38:40;;;;;;;7.07;2.20;;;;;;;12.06;50.66;100147.72;4950997;29;20047;-75
2023/11/14 10:41:09;;;;;;;7.18;1.92;;;;;;;12.10;50.80;100143.66;4935219;29;20063;-75
2023/11/14 10:43:38;;;;;;;6.82;2.33;;;;;;;12.09;50.22;100148.28;4932361;28;20455;-76
2023/11/14 10:46:08;;;;;;;7.18;1.98;;;;;;;12.11;50.48;100137.16;4930230;29;20056;-77
2023/11/14 10:48:36;;;;;;;7.85;1.95;;;;;;;12.11;50.99;100127.03;4931649;29;20546;-76
2023/11/14 10:51:06;;;;;;;6.53;1.95;;;;;;;12.11;51.08;100124.28;4939036;29;20094;-75
2023/11/14 10:53:35;;;;;;;5.70;1.80;;;;;;;12.11;50.76;100132.53;4924908;29;20044;-76
2023/11/14 10:56:04;;;;;;;7.05;2.05;;;;;;;12.11;50.74;100131.66;4946156;29;20126;-76
2023/11/14 10:58:35;;;;;;;7.18;2.13;;;;;;;12.12;51.38;100130.63;4933670;29;20558;-75
2023/11/14 11:01:04;;;;;;;5.72;1.83;;;;;;;12.09;51.09;100140.03;4945683;29;20043;-76
2023/11/14 11:03:34;;;;;;;6.53;1.95;;;;;;;12.10;51.20;100133.53;4929890;29;20293;-76
2023/11/14 11:06:03;;;;;;;9.10;1.83;;;;;;;12.08;50.88;100127.34;4915752;29;20111;-75
2023/11/14 11:08:31;;;;;;;5.13;1.50;;;;;;;12.05;51.10;100113.09;4917114;29;20051;-75
2023/11/14 11:11:03;;;;;;;5.93;2.08;;;;;;;12.02;51.14;100105.19;4917563;29;20058;-74
2023/11/14 11:13:31;;;;;;;7.03;1.70;;;;;;;11.97;51.53;100107.56;4934332;29;20074;-75
2023/11/14 11:16:01;;;;;;;5.25;1.60;;;;;;;11.94;51.32;100100.53;4931025;29;20052;-76
2023/11/14 11:18:34;;;;;;;5.85;1.63;;;;;;;11.90;52.24;100095.50;4919917;29;20058;-76
2023/11/14 11:21:09;;;;;;;6.88;1.95;;;;;;;11.86;52.07;100096.88;4925775;29;20035;-75
2023/11/14 11:24:06;;;;;;;6.20;1.75;;;;;;;11.79;52.30;100093.06;4931597;29;20048;-76
2023/11/14 11:26:54;;;;;;;6.03;1.77;;;;;;;11.71;51.92;100092.00;4932622;29;20496;-76
2023/11/14 11:29:45;;;;;;;6.05;1.63;;;;;;;11.69;52.56;100082.19;4947418;29;20068;-76
2023/11/14 11:32:28;;;;;;;6.25;1.80;;;;;;;11.67;52.77;100100.66;4919295;29;20585;-75